FDX23 SKBO-SCEL
Flight info
| Callsign | FDX23 |
|---|---|
| Flight time | N/A |
| Altitude | 34000 |
| Route | SOA1A LIXAG DCT PULTU UL305 JCL/N0491F350 UL302 ELASA/N0481F370 UL302 TOY DCT EMBAL UV204 SIMOK SIMOK7B |
| Aircraft | B77L/H-SDE1E2E3FGHIJ2J3J4J5M1RWXY/LB1D1 |
Departure
| Time | 2026-05-08 07:54 |
|---|---|
| Airport | El Dorado International Airport (SKBO) |
Arrival
| Time | N/A |
|---|---|
| Airport | Comodoro Arturo Merino Benítez International Airport (SCEL) |
| Time | Latitude | Longitude | Altitude | Speed | Heading |
|---|---|---|---|---|---|
| 2026-05-08 07:14 | 4.69319 | -74.14152 | 8370 ft | 0 kts | 32° |
| 2026-05-08 07:34 | 4.69316 | -74.14154 | 8369 ft | 2 kts | 32° |
| 2026-05-08 07:34 | 4.69300 | -74.14163 | 8370 ft | 3 kts | 18° |
| 2026-05-08 07:34 | 4.69282 | -74.14167 | 8370 ft | 3 kts | 0° |
| 2026-05-08 07:34 | 4.69263 | -74.14165 | 8370 ft | 3 kts | 346° |
| 2026-05-08 07:35 | 4.69246 | -74.14161 | 8370 ft | 1 kts | 345° |
| 2026-05-08 07:35 | 4.69244 | -74.14160 | 8370 ft | 0 kts | 345° |
| 2026-05-08 07:38 | 4.69251 | -74.14164 | 8370 ft | 2 kts | 328° |
| 2026-05-08 07:39 | 4.69257 | -74.14178 | 8370 ft | 2 kts | 294° |
| 2026-05-08 07:39 | 4.69268 | -74.14201 | 8370 ft | 4 kts | 298° |
| 2026-05-08 07:39 | 4.69285 | -74.14227 | 8370 ft | 5 kts | 304° |
| 2026-05-08 07:39 | 4.69289 | -74.14234 | 8370 ft | 6 kts | 305° |
| 2026-05-08 07:40 | 4.69310 | -74.14263 | 8370 ft | 6 kts | 306° |
| 2026-05-08 07:40 | 4.69317 | -74.14272 | 8370 ft | 6 kts | 306° |
| 2026-05-08 07:40 | 4.69332 | -74.14293 | 8370 ft | 6 kts | 306° |
| 2026-05-08 07:41 | 4.69338 | -74.14302 | 8370 ft | 6 kts | 306° |
| 2026-05-08 07:41 | 4.69363 | -74.14335 | 8370 ft | 6 kts | 309° |
| 2026-05-08 07:41 | 4.69414 | -74.14398 | 8369 ft | 15 kts | 308° |
| 2026-05-08 07:41 | 4.69478 | -74.14482 | 8369 ft | 15 kts | 307° |
| 2026-05-08 07:42 | 4.69541 | -74.14565 | 8369 ft | 15 kts | 307° |
| 2026-05-08 07:42 | 4.69604 | -74.14648 | 8369 ft | 15 kts | 307° |
| 2026-05-08 07:42 | 4.69667 | -74.14732 | 8369 ft | 15 kts | 307° |
| 2026-05-08 07:42 | 4.69730 | -74.14816 | 8369 ft | 15 kts | 307° |
| 2026-05-08 07:43 | 4.69779 | -74.14861 | 8369 ft | 8 kts | 345° |
| 2026-05-08 07:43 | 4.69834 | -74.14842 | 8369 ft | 10 kts | 28° |
| 2026-05-08 07:43 | 4.69896 | -74.14802 | 8369 ft | 11 kts | 36° |
| 2026-05-08 07:43 | 4.69957 | -74.14756 | 8370 ft | 11 kts | 37° |
| 2026-05-08 07:44 | 4.70019 | -74.14710 | 8370 ft | 11 kts | 37° |
| 2026-05-08 07:44 | 4.70076 | -74.14659 | 8370 ft | 11 kts | 42° |
| 2026-05-08 07:44 | 4.70141 | -74.14618 | 8371 ft | 11 kts | 28° |
| 2026-05-08 07:44 | 4.70203 | -74.14573 | 8371 ft | 11 kts | 38° |
| 2026-05-08 07:45 | 4.70263 | -74.14525 | 8371 ft | 11 kts | 37° |
| 2026-05-08 07:45 | 4.70326 | -74.14481 | 8371 ft | 11 kts | 35° |
| 2026-05-08 07:45 | 4.70387 | -74.14435 | 8372 ft | 11 kts | 39° |
| 2026-05-08 07:45 | 4.70442 | -74.14384 | 8372 ft | 11 kts | 63° |
| 2026-05-08 07:46 | 4.70416 | -74.14315 | 8372 ft | 11 kts | 126° |
| 2026-05-08 07:46 | 4.70369 | -74.14253 | 8371 ft | 11 kts | 127° |
| 2026-05-08 07:46 | 4.70323 | -74.14191 | 8371 ft | 11 kts | 127° |
| 2026-05-08 07:46 | 4.70276 | -74.14129 | 8372 ft | 11 kts | 127° |
| 2026-05-08 07:47 | 4.70228 | -74.14068 | 8372 ft | 11 kts | 128° |
| 2026-05-08 07:47 | 4.70181 | -74.14006 | 8372 ft | 11 kts | 127° |
| 2026-05-08 07:47 | 4.70134 | -74.13945 | 8372 ft | 11 kts | 127° |
| 2026-05-08 07:47 | 4.70087 | -74.13883 | 8372 ft | 11 kts | 127° |
| 2026-05-08 07:48 | 4.70040 | -74.13821 | 8372 ft | 11 kts | 127° |
| 2026-05-08 07:48 | 4.69993 | -74.13758 | 8372 ft | 11 kts | 127° |
| 2026-05-08 07:48 | 4.69946 | -74.13694 | 8372 ft | 11 kts | 127° |
| 2026-05-08 07:48 | 4.69898 | -74.13632 | 8372 ft | 11 kts | 127° |
| 2026-05-08 07:49 | 4.69850 | -74.13569 | 8373 ft | 11 kts | 127° |
| 2026-05-08 07:49 | 4.69802 | -74.13505 | 8373 ft | 11 kts | 127° |
| 2026-05-08 07:49 | 4.69749 | -74.13435 | 8373 ft | 14 kts | 127° |
| 2026-05-08 07:49 | 4.69683 | -74.13347 | 8373 ft | 16 kts | 127° |
| 2026-05-08 07:50 | 4.69616 | -74.13258 | 8373 ft | 16 kts | 127° |
| 2026-05-08 07:50 | 4.69549 | -74.13169 | 8373 ft | 16 kts | 127° |
| 2026-05-08 07:50 | 4.69481 | -74.13080 | 8373 ft | 16 kts | 127° |
| 2026-05-08 07:50 | 4.69414 | -74.12991 | 8373 ft | 16 kts | 127° |
| 2026-05-08 07:51 | 4.69347 | -74.12902 | 8373 ft | 16 kts | 127° |
| 2026-05-08 07:51 | 4.69279 | -74.12813 | 8373 ft | 16 kts | 127° |
| 2026-05-08 07:51 | 4.69213 | -74.12726 | 8373 ft | 16 kts | 127° |
| 2026-05-08 07:51 | 4.69148 | -74.12638 | 8374 ft | 15 kts | 121° |
| 2026-05-08 07:52 | 4.69148 | -74.12543 | 8373 ft | 10 kts | 52° |
| 2026-05-08 07:52 | 4.69209 | -74.12514 | 8373 ft | 10 kts | 19° |
| 2026-05-08 07:52 | 4.69262 | -74.12496 | 8373 ft | 5 kts | 12° |
| 2026-05-08 07:52 | 4.69290 | -74.12511 | 8369 ft | 5 kts | 314° |
| 2026-05-08 07:53 | 4.69300 | -74.12523 | 8374 ft | 0 kts | 307° |
| 2026-05-08 07:53 | 4.69373 | -74.12621 | 8372 ft | 52 kts | 308° |
| 2026-05-08 07:53 | 4.69749 | -74.13110 | 8372 ft | 124 kts | 307° |
| 2026-05-08 07:53 | 4.70415 | -74.13984 | 8371 ft | 190 kts | 307° |
| 2026-05-08 07:54 | 4.71287 | -74.15104 | 8727 ft | 204 kts | 308° |
| 2026-05-08 07:54 | 4.72143 | -74.16208 | 9504 ft | 201 kts | 308° |
| 2026-05-08 07:54 | 4.72998 | -74.17333 | 10032 ft | 202 kts | 308° |
| 2026-05-08 07:54 | 4.73987 | -74.18282 | 10354 ft | 207 kts | 334° |
| 2026-05-08 07:55 | 4.75417 | -74.18537 | 10374 ft | 214 kts | 18° |
| 2026-05-08 07:55 | 4.76697 | -74.17834 | 10726 ft | 207 kts | 36° |
| 2026-05-08 07:55 | 4.77914 | -74.17096 | 11227 ft | 202 kts | 28° |
| 2026-05-08 07:55 | 4.79212 | -74.16465 | 11453 ft | 216 kts | 26° |
| 2026-05-08 07:56 | 4.80605 | -74.15797 | 11709 ft | 224 kts | 27° |
| 2026-05-08 07:56 | 4.81984 | -74.15107 | 12281 ft | 217 kts | 34° |
| 2026-05-08 07:56 | 4.83016 | -74.14034 | 12629 ft | 220 kts | 66° |
| 2026-05-08 07:56 | 4.83237 | -74.12478 | 12667 ft | 236 kts | 104° |
| 2026-05-08 07:57 | 4.82412 | -74.11091 | 13089 ft | 233 kts | 135° |
| 2026-05-08 07:57 | 4.81218 | -74.09943 | 13321 ft | 248 kts | 133° |
| 2026-05-08 07:57 | 4.79979 | -74.08640 | 13504 ft | 265 kts | 131° |
| 2026-05-08 07:57 | 4.78602 | -74.07395 | 13922 ft | 275 kts | 148° |
| 2026-05-08 07:58 | 4.76764 | -74.06721 | 13901 ft | 288 kts | 172° |
| 2026-05-08 07:58 | 4.74756 | -74.06855 | 13761 ft | 294 kts | 194° |
| 2026-05-08 07:58 | 4.72901 | -74.07693 | 13689 ft | 291 kts | 211° |
| 2026-05-08 07:58 | 4.71256 | -74.08832 | 14063 ft | 284 kts | 211° |
| 2026-05-08 07:59 | 4.69512 | -74.09787 | 14549 ft | 290 kts | 201° |
| 2026-05-08 07:59 | 4.67725 | -74.10687 | 14989 ft | 294 kts | 217° |
| 2026-05-08 07:59 | 4.66383 | -74.12246 | 15449 ft | 301 kts | 245° |
| 2026-05-08 07:59 | 4.65706 | -74.14207 | 16072 ft | 294 kts | 252° |
| 2026-05-08 08:00 | 4.65077 | -74.16225 | 16261 ft | 316 kts | 252° |
| 2026-05-08 08:00 | 4.64294 | -74.18332 | 16572 ft | 325 kts | 246° |
| 2026-05-08 08:00 | 4.63389 | -74.20389 | 17248 ft | 326 kts | 245° |
| 2026-05-08 08:00 | 4.62423 | -74.22566 | 17102 ft | 357 kts | 245° |
| 2026-05-08 08:01 | 4.61382 | -74.24899 | 17258 ft | 375 kts | 245° |
| 2026-05-08 08:01 | 4.60237 | -74.27326 | 17170 ft | 395 kts | 239° |
| 2026-05-08 08:01 | 4.58563 | -74.29632 | 16591 ft | 420 kts | 226° |
| 2026-05-08 08:01 | 4.56392 | -74.31508 | 16225 ft | 411 kts | 212° |
| 2026-05-08 08:02 | 4.53914 | -74.32865 | 16070 ft | 406 kts | 202° |
| 2026-05-08 08:02 | 4.51268 | -74.33942 | 16285 ft | 414 kts | 202° |
| 2026-05-08 08:02 | 4.48625 | -74.35166 | 16728 ft | 422 kts | 206° |
| 2026-05-08 08:02 | 4.46017 | -74.36557 | 17305 ft | 426 kts | 208° |
| 2026-05-08 08:03 | 4.43456 | -74.38056 | 17939 ft | 428 kts | 210° |
| 2026-05-08 08:03 | 4.40909 | -74.39632 | 18495 ft | 432 kts | 211° |
| 2026-05-08 08:03 | 4.38360 | -74.41252 | 18978 ft | 436 kts | 212° |
| 2026-05-08 08:03 | 4.35792 | -74.42902 | 19504 ft | 439 kts | 212° |
| 2026-05-08 08:04 | 4.33209 | -74.44564 | 20027 ft | 442 kts | 212° |
| 2026-05-08 08:04 | 4.30642 | -74.46212 | 20545 ft | 445 kts | 212° |
| 2026-05-08 08:04 | 4.28021 | -74.47890 | 21021 ft | 449 kts | 212° |
| 2026-05-08 08:04 | 4.25378 | -74.49579 | 21490 ft | 452 kts | 212° |
| 2026-05-08 08:05 | 4.22714 | -74.51279 | 21972 ft | 455 kts | 212° |
| 2026-05-08 08:05 | 4.20031 | -74.52989 | 22467 ft | 458 kts | 212° |
| 2026-05-08 08:05 | 4.17337 | -74.54706 | 22938 ft | 461 kts | 212° |
| 2026-05-08 08:05 | 4.14625 | -74.56434 | 23383 ft | 463 kts | 212° |
| 2026-05-08 08:06 | 4.11894 | -74.58174 | 23773 ft | 466 kts | 212° |
| 2026-05-08 08:06 | 4.09151 | -74.59922 | 24146 ft | 469 kts | 212° |
| 2026-05-08 08:06 | 4.06389 | -74.61682 | 24520 ft | 471 kts | 212° |
| 2026-05-08 08:06 | 4.03606 | -74.63455 | 24882 ft | 474 kts | 212° |
| 2026-05-08 08:07 | 4.00848 | -74.65213 | 24941 ft | 478 kts | 212° |
| 2026-05-08 08:07 | 3.98050 | -74.66996 | 24943 ft | 475 kts | 212° |
| 2026-05-08 08:07 | 3.95243 | -74.68784 | 25110 ft | 478 kts | 212° |
| 2026-05-08 08:07 | 3.92436 | -74.70573 | 25499 ft | 479 kts | 212° |
| 2026-05-08 08:08 | 3.89624 | -74.72363 | 25930 ft | 480 kts | 212° |
| 2026-05-08 08:08 | 3.86755 | -74.74076 | 26283 ft | 481 kts | 205° |
| 2026-05-08 08:08 | 3.83583 | -74.75131 | 26532 ft | 482 kts | 192° |
| 2026-05-08 08:08 | 3.80284 | -74.75828 | 26775 ft | 486 kts | 191° |
| 2026-05-08 08:09 | 3.76958 | -74.76483 | 27126 ft | 488 kts | 191° |
| 2026-05-08 08:09 | 3.73629 | -74.77138 | 27500 ft | 489 kts | 191° |
| 2026-05-08 08:09 | 3.70290 | -74.77817 | 27875 ft | 490 kts | 191° |
| 2026-05-08 08:09 | 3.66941 | -74.78522 | 28206 ft | 493 kts | 192° |
| 2026-05-08 08:10 | 3.63577 | -74.79248 | 28453 ft | 496 kts | 192° |
| 2026-05-08 08:10 | 3.60192 | -74.79993 | 28778 ft | 498 kts | 192° |
| 2026-05-08 08:10 | 3.56801 | -74.80745 | 29088 ft | 499 kts | 192° |
| 2026-05-08 08:10 | 3.53449 | -74.81491 | 29372 ft | 501 kts | 192° |
| 2026-05-08 08:11 | 3.49989 | -74.82260 | 29646 ft | 504 kts | 192° |
| 2026-05-08 08:11 | 3.46607 | -74.83011 | 29918 ft | 505 kts | 192° |
| 2026-05-08 08:11 | 3.43174 | -74.83771 | 30260 ft | 504 kts | 192° |
| 2026-05-08 08:11 | 3.39763 | -74.84526 | 30708 ft | 501 kts | 192° |
| 2026-05-08 08:12 | 3.36376 | -74.85275 | 31206 ft | 496 kts | 192° |
| 2026-05-08 08:12 | 3.33021 | -74.86017 | 31686 ft | 492 kts | 193° |
| 2026-05-08 08:12 | 3.29684 | -74.86754 | 32118 ft | 490 kts | 193° |
| 2026-05-08 08:12 | 3.26355 | -74.87490 | 32538 ft | 488 kts | 193° |
| 2026-05-08 08:13 | 3.23044 | -74.88222 | 32956 ft | 486 kts | 193° |
| 2026-05-08 08:13 | 3.19747 | -74.88950 | 33373 ft | 483 kts | 193° |
| 2026-05-08 08:13 | 3.16472 | -74.89674 | 33800 ft | 481 kts | 193° |
| 2026-05-08 08:13 | 3.13249 | -74.90386 | 34189 ft | 479 kts | 193° |
| 2026-05-08 08:14 | 3.09990 | -74.91107 | 34430 ft | 479 kts | 193° |
| 2026-05-08 08:14 | 3.06727 | -74.91828 | 34627 ft | 481 kts | 193° |
| 2026-05-08 08:14 | 3.03451 | -74.92552 | 34837 ft | 482 kts | 193° |
| 2026-05-08 08:15 | 2.97972 | -74.93763 | 34936 ft | 486 kts | 193° |
| 2026-05-08 08:15 | 2.91378 | -74.95220 | 34975 ft | 483 kts | 193° |
| 2026-05-08 08:16 | 2.84828 | -74.96666 | 34991 ft | 480 kts | 193° |
| 2026-05-08 08:16 | 2.78305 | -74.98107 | 34996 ft | 479 kts | 193° |
| 2026-05-08 08:17 | 2.71841 | -74.99534 | 34995 ft | 478 kts | 193° |
| 2026-05-08 08:17 | 2.65337 | -75.00972 | 34997 ft | 479 kts | 193° |
| 2026-05-08 08:18 | 2.58816 | -75.02411 | 34994 ft | 480 kts | 193° |
| 2026-05-08 08:18 | 2.52285 | -75.03852 | 34998 ft | 480 kts | 193° |
| 2026-05-08 08:19 | 2.45783 | -75.05288 | 34995 ft | 481 kts | 193° |
| 2026-05-08 08:19 | 2.39228 | -75.06735 | 34994 ft | 482 kts | 193° |
| 2026-05-08 08:20 | 2.32681 | -75.08180 | 34986 ft | 482 kts | 193° |
| 2026-05-08 08:20 | 2.26130 | -75.09626 | 34988 ft | 482 kts | 193° |
| 2026-05-08 08:21 | 2.19578 | -75.11071 | 34983 ft | 482 kts | 193° |
| 2026-05-08 08:21 | 2.13016 | -75.12519 | 34978 ft | 482 kts | 193° |
| 2026-05-08 08:22 | 2.06499 | -75.13957 | 34971 ft | 482 kts | 193° |
| 2026-05-08 08:22 | 1.99949 | -75.15402 | 34962 ft | 482 kts | 193° |
| 2026-05-08 08:23 | 1.93398 | -75.16847 | 34962 ft | 481 kts | 193° |
| 2026-05-08 08:23 | 1.86848 | -75.18292 | 34954 ft | 481 kts | 194° |
| 2026-05-08 08:24 | 1.80357 | -75.19723 | 34948 ft | 480 kts | 193° |
| 2026-05-08 08:24 | 1.73840 | -75.21161 | 34941 ft | 479 kts | 194° |
| 2026-05-08 08:25 | 1.67330 | -75.22596 | 34936 ft | 479 kts | 194° |
| 2026-05-08 08:25 | 1.60818 | -75.24032 | 34932 ft | 479 kts | 194° |
| 2026-05-08 08:26 | 1.54312 | -75.25467 | 34930 ft | 478 kts | 193° |
| 2026-05-08 08:26 | 1.47807 | -75.26901 | 34927 ft | 478 kts | 193° |
| 2026-05-08 08:27 | 1.41305 | -75.28335 | 34922 ft | 478 kts | 193° |
| 2026-05-08 08:27 | 1.34836 | -75.29761 | 34915 ft | 478 kts | 193° |
| 2026-05-08 08:28 | 1.28333 | -75.31194 | 34919 ft | 478 kts | 193° |
| 2026-05-08 08:28 | 1.21826 | -75.32629 | 34915 ft | 479 kts | 193° |
| 2026-05-08 08:29 | 1.15319 | -75.34063 | 34911 ft | 479 kts | 193° |
| 2026-05-08 08:29 | 1.08807 | -75.35498 | 34910 ft | 479 kts | 193° |
| 2026-05-08 08:30 | 1.02287 | -75.36936 | 34910 ft | 479 kts | 193° |
| 2026-05-08 08:30 | 0.92519 | -75.39088 | 34912 ft | 479 kts | 193° |
| 2026-05-08 08:31 | 0.86042 | -75.40516 | 34912 ft | 479 kts | 194° |
| 2026-05-08 08:31 | 0.79527 | -75.41951 | 34912 ft | 479 kts | 194° |
| 2026-05-08 08:32 | 0.73009 | -75.43388 | 34911 ft | 479 kts | 194° |
| 2026-05-08 08:32 | 0.66493 | -75.44824 | 34911 ft | 479 kts | 194° |
| 2026-05-08 08:33 | 0.59977 | -75.46260 | 34910 ft | 479 kts | 194° |
| 2026-05-08 08:33 | 0.53450 | -75.47698 | 34911 ft | 480 kts | 194° |
| 2026-05-08 08:34 | 0.46962 | -75.49127 | 34911 ft | 480 kts | 194° |
| 2026-05-08 08:34 | 0.40445 | -75.50563 | 34912 ft | 480 kts | 194° |
| 2026-05-08 08:35 | 0.33915 | -75.52002 | 34914 ft | 480 kts | 194° |
| 2026-05-08 08:35 | 0.27382 | -75.53442 | 34911 ft | 480 kts | 194° |
| 2026-05-08 08:36 | 0.20896 | -75.54871 | 34913 ft | 480 kts | 194° |
| 2026-05-08 08:36 | 0.14370 | -75.56309 | 34913 ft | 480 kts | 194° |
| 2026-05-08 08:37 | 0.07841 | -75.57748 | 34911 ft | 480 kts | 194° |
| 2026-05-08 08:37 | 0.01275 | -75.59046 | 34911 ft | 481 kts | 191° |
| 2026-05-08 08:38 | -0.05339 | -75.60123 | 34914 ft | 481 kts | 191° |
| 2026-05-08 08:38 | -0.11949 | -75.61196 | 34917 ft | 481 kts | 191° |
| 2026-05-08 08:39 | -0.18522 | -75.62300 | 34915 ft | 481 kts | 191° |
| 2026-05-08 08:39 | -0.25137 | -75.63429 | 34912 ft | 481 kts | 191° |
| 2026-05-08 08:40 | -0.31741 | -75.64559 | 34917 ft | 481 kts | 191° |
| 2026-05-08 08:40 | -0.38344 | -75.65688 | 34915 ft | 481 kts | 191° |
| 2026-05-08 08:41 | -0.44951 | -75.66816 | 34909 ft | 481 kts | 191° |
| 2026-05-08 08:41 | -0.51557 | -75.67944 | 34913 ft | 481 kts | 191° |
| 2026-05-08 08:42 | -0.58118 | -75.69064 | 34913 ft | 481 kts | 191° |
| 2026-05-08 08:42 | -0.64732 | -75.70193 | 34912 ft | 481 kts | 191° |
| 2026-05-08 08:43 | -0.71347 | -75.71322 | 34908 ft | 481 kts | 192° |
| 2026-05-08 08:43 | -0.77944 | -75.72449 | 34912 ft | 481 kts | 192° |
| 2026-05-08 08:44 | -0.84503 | -75.73568 | 34908 ft | 481 kts | 192° |
| 2026-05-08 08:44 | -0.91109 | -75.74697 | 34909 ft | 481 kts | 192° |
| 2026-05-08 08:45 | -0.97712 | -75.75824 | 34914 ft | 481 kts | 192° |
| 2026-05-08 08:45 | -1.04304 | -75.76950 | 34916 ft | 481 kts | 192° |
| 2026-05-08 08:46 | -1.10905 | -75.78077 | 34912 ft | 481 kts | 192° |
| 2026-05-08 08:46 | -1.17457 | -75.79196 | 34907 ft | 481 kts | 192° |
| 2026-05-08 08:47 | -1.24052 | -75.80322 | 34911 ft | 481 kts | 192° |
| 2026-05-08 08:47 | -1.30644 | -75.81448 | 34913 ft | 481 kts | 192° |
| 2026-05-08 08:48 | -1.37239 | -75.82575 | 34912 ft | 481 kts | 192° |
| 2026-05-08 08:48 | -1.43829 | -75.83700 | 34908 ft | 481 kts | 192° |
| 2026-05-08 08:49 | -1.50424 | -75.84827 | 34902 ft | 480 kts | 192° |
| 2026-05-08 08:49 | -1.57019 | -75.85954 | 34907 ft | 480 kts | 192° |
| 2026-05-08 08:50 | -1.63610 | -75.87080 | 34911 ft | 480 kts | 192° |
| 2026-05-08 08:50 | -1.70154 | -75.88198 | 34910 ft | 480 kts | 192° |
| 2026-05-08 08:51 | -1.76744 | -75.89324 | 34909 ft | 480 kts | 192° |
| 2026-05-08 08:51 | -1.83322 | -75.90449 | 34915 ft | 480 kts | 192° |
| 2026-05-08 08:52 | -1.89909 | -75.91574 | 34905 ft | 480 kts | 192° |
| 2026-05-08 08:52 | -1.96491 | -75.92700 | 34904 ft | 479 kts | 192° |
| 2026-05-08 08:53 | -2.03057 | -75.93634 | 34906 ft | 480 kts | 188° |
| 2026-05-08 08:53 | -2.09718 | -75.94216 | 34909 ft | 481 kts | 187° |
| 2026-05-08 08:54 | -2.16389 | -75.94776 | 34905 ft | 481 kts | 187° |
| 2026-05-08 08:54 | -2.23066 | -75.95359 | 34901 ft | 481 kts | 187° |
| 2026-05-08 08:55 | -2.29728 | -75.95953 | 34904 ft | 480 kts | 187° |
| 2026-05-08 08:55 | -2.36350 | -75.96547 | 34906 ft | 480 kts | 187° |
| 2026-05-08 08:56 | -2.43008 | -75.97143 | 34904 ft | 480 kts | 187° |
| 2026-05-08 08:56 | -2.49665 | -75.97739 | 34904 ft | 480 kts | 187° |
| 2026-05-08 08:57 | -2.56331 | -75.98335 | 34910 ft | 480 kts | 187° |
| 2026-05-08 08:57 | -2.62980 | -75.98929 | 34907 ft | 480 kts | 187° |
| 2026-05-08 08:58 | -2.69633 | -75.99524 | 34903 ft | 479 kts | 187° |
| 2026-05-08 08:58 | -2.76285 | -76.00119 | 34901 ft | 479 kts | 187° |
| 2026-05-08 08:59 | -2.82924 | -76.00713 | 34905 ft | 479 kts | 187° |
| 2026-05-08 08:59 | -2.89525 | -76.01304 | 34906 ft | 478 kts | 187° |
| 2026-05-08 09:00 | -2.96158 | -76.01897 | 34900 ft | 478 kts | 187° |
| 2026-05-08 09:00 | -3.02778 | -76.02490 | 34901 ft | 477 kts | 187° |
| 2026-05-08 09:01 | -3.09399 | -76.03083 | 34903 ft | 477 kts | 187° |
| 2026-05-08 09:01 | -3.16009 | -76.03675 | 34902 ft | 477 kts | 187° |
| 2026-05-08 09:02 | -3.22576 | -76.04267 | 34898 ft | 476 kts | 188° |
| 2026-05-08 09:02 | -3.29173 | -76.04860 | 34900 ft | 475 kts | 187° |
| 2026-05-08 09:03 | -3.35766 | -76.05447 | 34896 ft | 475 kts | 188° |
| 2026-05-08 09:03 | -3.42340 | -76.06039 | 34903 ft | 474 kts | 188° |
| 2026-05-08 09:04 | -3.47807 | -76.06534 | 34902 ft | 474 kts | 188° |
| 2026-05-08 09:04 | -3.54372 | -76.07127 | 34901 ft | 474 kts | 188° |
| 2026-05-08 09:05 | -3.60939 | -76.07718 | 34901 ft | 473 kts | 188° |
| 2026-05-08 09:05 | -3.67505 | -76.08309 | 34898 ft | 473 kts | 188° |
| 2026-05-08 09:06 | -3.74060 | -76.08900 | 34894 ft | 473 kts | 188° |
| 2026-05-08 09:06 | -3.80627 | -76.09491 | 34895 ft | 473 kts | 188° |
| 2026-05-08 09:07 | -3.87143 | -76.10077 | 34902 ft | 473 kts | 188° |
| 2026-05-08 09:07 | -3.93698 | -76.10668 | 34895 ft | 473 kts | 188° |
| 2026-05-08 09:08 | -4.00265 | -76.11260 | 34903 ft | 473 kts | 188° |
| 2026-05-08 09:08 | -4.06831 | -76.11850 | 34900 ft | 473 kts | 188° |
| 2026-05-08 09:09 | -4.13386 | -76.12440 | 34898 ft | 473 kts | 188° |
| 2026-05-08 09:09 | -4.19900 | -76.13028 | 34897 ft | 473 kts | 188° |
| 2026-05-08 09:10 | -4.26447 | -76.13618 | 34900 ft | 472 kts | 188° |
| 2026-05-08 09:10 | -4.32994 | -76.14206 | 34896 ft | 472 kts | 188° |
| 2026-05-08 09:11 | -4.39545 | -76.14794 | 34900 ft | 472 kts | 188° |
| 2026-05-08 09:11 | -4.46091 | -76.15381 | 34902 ft | 472 kts | 188° |
| 2026-05-08 09:12 | -4.52632 | -76.15968 | 34896 ft | 471 kts | 188° |
| 2026-05-08 09:12 | -4.59168 | -76.16555 | 34900 ft | 471 kts | 188° |
| 2026-05-08 09:13 | -4.65658 | -76.17137 | 34899 ft | 471 kts | 188° |
| 2026-05-08 09:13 | -4.72187 | -76.17724 | 34896 ft | 471 kts | 188° |
| 2026-05-08 09:14 | -4.78706 | -76.18309 | 34898 ft | 470 kts | 188° |
| 2026-05-08 09:14 | -4.85231 | -76.18895 | 34896 ft | 470 kts | 188° |
| 2026-05-08 09:15 | -4.91749 | -76.19481 | 34898 ft | 470 kts | 188° |
| 2026-05-08 09:15 | -4.98265 | -76.20066 | 34893 ft | 470 kts | 188° |
| 2026-05-08 09:16 | -5.04785 | -76.20652 | 34894 ft | 469 kts | 188° |
| 2026-05-08 09:16 | -5.11294 | -76.21236 | 34887 ft | 469 kts | 188° |
| 2026-05-08 09:17 | -5.17763 | -76.21818 | 34889 ft | 469 kts | 188° |
| 2026-05-08 09:17 | -5.24267 | -76.22402 | 34886 ft | 469 kts | 188° |
| 2026-05-08 09:18 | -5.30772 | -76.22986 | 34902 ft | 469 kts | 188° |
| 2026-05-08 09:18 | -5.37269 | -76.23599 | 34895 ft | 468 kts | 189° |
| 2026-05-08 09:19 | -5.43743 | -76.24347 | 34896 ft | 468 kts | 190° |
| 2026-05-08 09:19 | -5.50217 | -76.25116 | 34897 ft | 468 kts | 190° |
| 2026-05-08 09:20 | -5.56695 | -76.25870 | 34890 ft | 468 kts | 189° |
| 2026-05-08 09:20 | -5.63164 | -76.26610 | 34897 ft | 468 kts | 189° |
| 2026-05-08 09:21 | -5.69652 | -76.27352 | 34888 ft | 468 kts | 189° |
| 2026-05-08 09:23 | -5.92274 | -76.29940 | 34898 ft | 468 kts | 189° |
| 2026-05-08 09:23 | -5.98752 | -76.30682 | 34895 ft | 468 kts | 189° |
| 2026-05-08 09:24 | -6.05230 | -76.31424 | 34896 ft | 468 kts | 190° |
| 2026-05-08 09:24 | -6.11698 | -76.32165 | 34911 ft | 468 kts | 189° |
| 2026-05-08 09:25 | -6.18178 | -76.32907 | 34907 ft | 468 kts | 189° |
| 2026-05-08 09:25 | -6.24648 | -76.33649 | 34904 ft | 468 kts | 189° |
| 2026-05-08 09:26 | -6.31085 | -76.34387 | 34923 ft | 468 kts | 189° |
| 2026-05-08 09:26 | -6.37551 | -76.35126 | 34924 ft | 468 kts | 190° |
| 2026-05-08 09:27 | -6.44031 | -76.35869 | 34928 ft | 467 kts | 189° |
| 2026-05-08 09:27 | -6.50504 | -76.36612 | 34915 ft | 468 kts | 190° |
| 2026-05-08 09:28 | -6.56991 | -76.37279 | 34918 ft | 469 kts | 188° |
| 2026-05-08 09:28 | -6.63489 | -76.37859 | 34909 ft | 468 kts | 188° |
| 2026-05-08 09:29 | -6.69930 | -76.38434 | 34907 ft | 468 kts | 188° |
| 2026-05-08 09:29 | -6.76431 | -76.39027 | 34902 ft | 468 kts | 188° |
| 2026-05-08 09:30 | -6.82926 | -76.39626 | 34895 ft | 468 kts | 189° |
| 2026-05-08 09:30 | -6.89404 | -76.40223 | 34913 ft | 467 kts | 189° |
| 2026-05-08 09:31 | -6.95854 | -76.40821 | 34897 ft | 468 kts | 189° |
| 2026-05-08 09:31 | -7.02350 | -76.41422 | 34907 ft | 468 kts | 189° |
| 2026-05-08 09:32 | -7.08844 | -76.42022 | 34910 ft | 468 kts | 189° |
| 2026-05-08 09:32 | -7.15347 | -76.42623 | 34896 ft | 469 kts | 189° |
| 2026-05-08 09:33 | -7.21810 | -76.43220 | 34904 ft | 468 kts | 189° |
| 2026-05-08 09:33 | -7.28303 | -76.43821 | 34899 ft | 469 kts | 189° |
| 2026-05-08 09:34 | -7.34806 | -76.44423 | 34911 ft | 469 kts | 189° |
| 2026-05-08 09:34 | -7.41300 | -76.45024 | 34913 ft | 469 kts | 189° |
| 2026-05-08 09:35 | -7.47797 | -76.45625 | 34921 ft | 469 kts | 189° |
| 2026-05-08 09:35 | -7.54294 | -76.46226 | 34921 ft | 469 kts | 189° |
| 2026-05-08 09:36 | -7.60792 | -76.46829 | 34922 ft | 469 kts | 189° |
| 2026-05-08 09:36 | -7.67300 | -76.47431 | 34926 ft | 469 kts | 189° |
| 2026-05-08 09:37 | -7.73752 | -76.48029 | 34937 ft | 469 kts | 189° |
| 2026-05-08 09:37 | -7.80246 | -76.48631 | 34938 ft | 468 kts | 189° |
| 2026-05-08 09:38 | -7.86742 | -76.49234 | 34931 ft | 469 kts | 189° |
| 2026-05-08 09:38 | -7.93234 | -76.49836 | 34946 ft | 469 kts | 189° |
| 2026-05-08 09:39 | -7.99737 | -76.50441 | 34939 ft | 469 kts | 189° |
| 2026-05-08 09:39 | -8.06236 | -76.51042 | 34949 ft | 468 kts | 189° |
| 2026-05-08 09:40 | -8.12731 | -76.51645 | 34954 ft | 469 kts | 189° |
| 2026-05-08 09:40 | -8.19232 | -76.52248 | 34948 ft | 469 kts | 189° |
| 2026-05-08 09:41 | -8.25689 | -76.52848 | 34957 ft | 469 kts | 189° |
| 2026-05-08 09:41 | -8.32191 | -76.53452 | 34957 ft | 469 kts | 189° |
| 2026-05-08 09:42 | -8.38689 | -76.54055 | 34967 ft | 469 kts | 189° |
| 2026-05-08 09:42 | -8.45185 | -76.54657 | 34975 ft | 469 kts | 189° |
| 2026-05-08 09:43 | -8.51680 | -76.55279 | 34985 ft | 468 kts | 190° |
| 2026-05-08 09:43 | -8.58151 | -76.55995 | 34993 ft | 466 kts | 190° |
| 2026-05-08 09:44 | -8.64598 | -76.56716 | 35007 ft | 467 kts | 190° |
| 2026-05-08 09:44 | -8.71070 | -76.57434 | 34999 ft | 468 kts | 190° |
| 2026-05-08 09:45 | -8.77517 | -76.58139 | 35010 ft | 468 kts | 190° |
| 2026-05-08 09:45 | -8.83994 | -76.58848 | 35036 ft | 469 kts | 190° |
| 2026-05-08 09:46 | -8.90484 | -76.59558 | 35021 ft | 468 kts | 190° |
| 2026-05-08 09:46 | -8.96971 | -76.60267 | 35048 ft | 469 kts | 190° |
| 2026-05-08 09:47 | -9.03468 | -76.60977 | 35039 ft | 467 kts | 190° |
| 2026-05-08 09:47 | -9.09918 | -76.61685 | 35055 ft | 467 kts | 190° |
| 2026-05-08 09:48 | -9.16408 | -76.62398 | 35067 ft | 470 kts | 190° |
| 2026-05-08 09:48 | -9.22851 | -76.63105 | 35086 ft | 466 kts | 190° |
| 2026-05-08 09:49 | -9.29305 | -76.63809 | 35107 ft | 467 kts | 191° |
| 2026-05-08 09:49 | -9.35823 | -76.64527 | 35101 ft | 469 kts | 191° |
| 2026-05-08 09:50 | -9.42285 | -76.65232 | 35117 ft | 471 kts | 191° |
| 2026-05-08 09:50 | -9.48814 | -76.65944 | 35123 ft | 472 kts | 191° |
| 2026-05-08 09:51 | -9.54246 | -76.66538 | 35124 ft | 472 kts | 191° |
| 2026-05-08 09:51 | -9.60778 | -76.67249 | 35139 ft | 471 kts | 191° |
| 2026-05-08 09:52 | -9.67279 | -76.67957 | 35157 ft | 469 kts | 191° |
| 2026-05-08 09:52 | -9.73770 | -76.68665 | 35150 ft | 469 kts | 191° |
| 2026-05-08 09:53 | -9.80250 | -76.69372 | 35152 ft | 467 kts | 191° |
| 2026-05-08 09:53 | -9.86701 | -76.70077 | 35158 ft | 466 kts | 191° |
| 2026-05-08 09:54 | -9.93114 | -76.70777 | 35170 ft | 467 kts | 191° |
| 2026-05-08 09:54 | -9.99580 | -76.71486 | 35165 ft | 468 kts | 191° |
| 2026-05-08 09:55 | -10.07163 | -76.72315 | 35173 ft | 469 kts | 191° |
| 2026-05-08 09:55 | -10.12566 | -76.72905 | 35182 ft | 471 kts | 191° |
| 2026-05-08 09:56 | -10.19092 | -76.73618 | 35164 ft | 471 kts | 191° |
| 2026-05-08 09:56 | -10.25609 | -76.74330 | 35151 ft | 470 kts | 191° |
| 2026-05-08 09:57 | -10.35331 | -76.75396 | 35149 ft | 467 kts | 191° |
| 2026-05-08 09:57 | -10.41801 | -76.76105 | 35151 ft | 467 kts | 191° |
| 2026-05-08 09:58 | -10.48278 | -76.76813 | 35130 ft | 467 kts | 191° |
| 2026-05-08 09:58 | -10.54727 | -76.77517 | 35146 ft | 466 kts | 191° |
| 2026-05-08 09:59 | -10.61148 | -76.78226 | 35145 ft | 467 kts | 191° |
| 2026-05-08 09:59 | -10.67630 | -76.78937 | 35112 ft | 469 kts | 191° |
| 2026-05-08 10:00 | -10.74127 | -76.79648 | 35125 ft | 471 kts | 191° |
| 2026-05-08 10:00 | -10.80657 | -76.80433 | 35124 ft | 471 kts | 195° |
| 2026-05-08 10:01 | -10.87007 | -76.81913 | 35123 ft | 467 kts | 199° |
| 2026-05-08 10:01 | -10.93330 | -76.83503 | 35094 ft | 467 kts | 199° |
| 2026-05-08 10:02 | -10.99647 | -76.85067 | 35092 ft | 467 kts | 199° |
| 2026-05-08 10:02 | -11.05923 | -76.86603 | 35066 ft | 466 kts | 199° |
| 2026-05-08 10:03 | -11.12216 | -76.88176 | 35056 ft | 464 kts | 199° |
| 2026-05-08 10:03 | -11.18490 | -76.89687 | 35045 ft | 463 kts | 198° |
| 2026-05-08 10:04 | -11.24757 | -76.91199 | 35035 ft | 463 kts | 199° |
| 2026-05-08 10:04 | -11.31035 | -76.92729 | 35025 ft | 464 kts | 199° |
| 2026-05-08 10:05 | -11.37311 | -76.94265 | 35006 ft | 464 kts | 198° |
| 2026-05-08 10:05 | -11.43580 | -76.95797 | 35001 ft | 463 kts | 199° |
| 2026-05-08 10:06 | -11.49858 | -76.97331 | 34998 ft | 463 kts | 199° |
| 2026-05-08 10:06 | -11.56084 | -76.98856 | 34994 ft | 463 kts | 199° |
| 2026-05-08 10:07 | -11.62367 | -77.00395 | 34987 ft | 466 kts | 198° |
| 2026-05-08 10:07 | -11.68690 | -77.01943 | 34987 ft | 467 kts | 199° |
| 2026-05-08 10:08 | -11.75020 | -77.03493 | 34963 ft | 468 kts | 198° |
| 2026-05-08 10:08 | -11.81355 | -77.05046 | 34963 ft | 468 kts | 199° |
| 2026-05-08 10:09 | -11.87700 | -77.06603 | 34946 ft | 469 kts | 198° |
| 2026-05-08 10:09 | -11.94038 | -77.08156 | 34942 ft | 468 kts | 199° |
| 2026-05-08 10:10 | -12.00362 | -77.09605 | 34932 ft | 472 kts | 193° |
| 2026-05-08 10:10 | -12.06988 | -77.09663 | 34949 ft | 482 kts | 180° |
| 2026-05-08 10:11 | -12.13618 | -77.08245 | 34947 ft | 489 kts | 171° |
| 2026-05-08 10:11 | -12.20198 | -77.06435 | 34949 ft | 490 kts | 171° |
| 2026-05-08 10:12 | -12.26786 | -77.04633 | 34955 ft | 490 kts | 171° |
| 2026-05-08 10:12 | -12.33386 | -77.02873 | 34960 ft | 490 kts | 171° |
| 2026-05-08 10:13 | -12.39952 | -77.01144 | 34958 ft | 490 kts | 171° |
| 2026-05-08 10:13 | -12.46565 | -76.99404 | 34955 ft | 490 kts | 171° |
| 2026-05-08 10:14 | -12.53191 | -76.97657 | 34953 ft | 491 kts | 171° |
| 2026-05-08 10:14 | -12.59801 | -76.95913 | 34953 ft | 491 kts | 171° |